Time;durP1;ratioP1;P1;durP2;ratioP2;P2;SDS_P1;SDS_P2;PMS_P1;PMS_P2;Temp;Humidity;BMP_temperature;BMP_pressure;BME280_temperature;BME280_humidity;BME280_pressure;Samples;Min_cycle;Max_cycle;Signal;HPM_P1;HPM_P2
2022/12/14 00:01:43;;;;;;;3.70;3.60;;;16.60;57.10;;;;;;5091890;27;43449;-76
2022/12/14 00:04:16;;;;;;;4.00;3.90;;;16.60;57.10;;;;;;5090658;27;43962;-75
2022/12/14 00:06:44;;;;;;;3.73;3.63;;;16.60;57.20;;;;;;5089679;27;43865;-74
2022/12/14 00:09:12;;;;;;;3.83;3.73;;;16.50;57.20;;;;;;5073067;27;44691;-75
2022/12/14 00:11:40;;;;;;;3.50;3.40;;;16.50;57.20;;;;;;5073406;28;43443;-78
2022/12/14 00:14:08;;;;;;;3.50;3.40;;;16.50;57.30;;;;;;5089509;27;43931;-77
2022/12/14 00:16:38;;;;;;;3.77;3.67;;;16.50;57.30;;;;;;5089356;27;45110;-76
2022/12/14 00:19:06;;;;;;;3.60;3.50;;;16.50;57.40;;;;;;5069985;28;44874;-77
2022/12/14 00:21:34;;;;;;;3.90;3.63;;;16.50;57.40;;;;;;5090681;27;43488;-77
2022/12/14 00:24:01;;;;;;;3.87;3.77;;;16.50;57.40;;;;;;5092623;27;43501;-77
2022/12/14 00:26:30;;;;;;;3.47;3.37;;;16.40;57.40;;;;;;5071595;27;45631;-75
2022/12/14 00:28:59;;;;;;;3.63;3.53;;;16.40;57.50;;;;;;5090772;27;43481;-77
2022/12/14 00:31:27;;;;;;;3.97;3.87;;;16.40;57.50;;;;;;5091946;28;43446;-76
2022/12/14 00:33:57;;;;;;;3.70;3.60;;;16.50;57.50;;;;;;5073602;28;43449;-78
2022/12/14 00:36:25;;;;;;;3.70;3.60;;;16.50;57.40;;;;;;5091930;28;44012;-74
2022/12/14 00:38:52;;;;;;;3.90;3.80;;;16.50;57.40;;;;;;5071097;27;44506;-76
2022/12/14 00:41:20;;;;;;;3.53;3.43;;;16.50;57.40;;;;;;5072334;28;43445;-74
2022/12/14 00:43:48;;;;;;;3.77;3.67;;;16.50;57.50;;;;;;5073119;27;44250;-75
2022/12/14 00:46:17;;;;;;;3.83;3.73;;;16.40;57.60;;;;;;5089835;27;43907;-75
2022/12/14 00:48:45;;;;;;;4.20;4.00;;;16.50;57.70;;;;;;5088526;27;43491;-74
2022/12/14 00:51:14;;;;;;;4.07;3.87;;;16.60;57.50;;;;;;5094135;27;43775;-76
2022/12/14 00:53:44;;;;;;;4.00;3.90;;;16.60;57.10;;;;;;5089497;27;43498;-77
2022/12/14 00:56:12;;;;;;;3.53;3.43;;;16.70;57.00;;;;;;5087642;27;43896;-74
2022/12/14 00:58:40;;;;;;;3.77;3.67;;;16.70;57.00;;;;;;5089307;27;44908;-76
2022/12/14 01:01:11;;;;;;;4.20;4.10;;;16.60;57.00;;;;;;5091089;27;43469;-76
2022/12/14 01:03:39;;;;;;;3.80;3.60;;;16.60;57.10;;;;;;5087823;27;43453;-76
2022/12/14 01:06:13;;;;;;;4.10;4.00;;;16.60;57.10;;;;;;5088460;27;43595;-78
2022/12/14 01:08:41;;;;;;;3.87;3.77;;;16.60;57.10;;;;;;5088778;27;43503;-75
2022/12/14 01:11:10;;;;;;;3.80;3.70;;;16.60;57.10;;;;;;5087645;27;43459;-75
2022/12/14 01:13:39;;;;;;;3.77;3.60;;;16.60;57.10;;;;;;5068451;27;43486;-73
2022/12/14 01:16:08;;;;;;;3.50;3.40;;;16.60;57.10;;;;;;5089273;27;44623;-78
2022/12/14 01:18:36;;;;;;;3.70;3.60;;;16.60;57.40;;;;;;5073482;28;43460;-75
2022/12/14 01:21:10;;;;;;;3.60;3.50;;;16.60;57.30;;;;;;5088712;27;43500;-75
2022/12/14 01:23:39;;;;;;;3.70;3.60;;;16.50;57.20;;;;;;5090533;27;44172;-77
2022/12/14 01:26:07;;;;;;;3.40;3.30;;;16.50;57.20;;;;;;5087386;27;44229;-76
2022/12/14 01:28:35;;;;;;;3.97;3.87;;;16.50;57.20;;;;;;5088535;27;43412;-71
2022/12/14 01:31:08;;;;;;;3.50;3.40;;;16.50;57.20;;;;;;5089360;27;43767;-77
2022/12/14 01:33:36;;;;;;;3.83;3.63;;;16.50;57.20;;;;;;5090491;27;43477;-75
2022/12/14 01:36:05;;;;;;;3.73;3.63;;;16.50;57.50;;;;;;5068630;27;46486;-77
2022/12/14 01:38:34;;;;;;;3.80;3.70;;;16.50;57.50;;;;;;5088704;27;44016;-75
2022/12/14 01:41:03;;;;;;;3.60;3.50;;;16.60;57.30;;;;;;5087935;27;43962;-76
2022/12/14 01:43:48;;;;;;;3.73;3.63;;;16.60;57.10;;;;;;5087254;27;44630;-77
2022/12/14 01:46:18;;;;;;;3.40;3.30;;;16.60;57.10;;;;;;5089244;27;43812;-75
2022/12/14 01:48:46;;;;;;;3.93;3.83;;;16.60;57.10;;;;;;5089065;27;43382;-77
2022/12/14 01:51:14;;;;;;;3.60;3.50;;;16.60;57.10;;;;;;5087992;27;43472;-76
2022/12/14 01:53:42;;;;;;;3.77;3.67;;;16.50;57.20;;;;;;5087587;27;43437;-77
2022/12/14 01:56:11;;;;;;;3.93;3.80;;;16.50;57.20;;;;;;5089824;27;43915;-76
2022/12/14 01:58:40;;;;;;;3.47;3.37;;;16.50;57.10;;;;;;5071966;27;44860;-77
2022/12/14 02:01:10;;;;;;;3.50;3.40;;;16.50;57.20;;;;;;5087129;27;43496;-75
2022/12/14 02:03:38;;;;;;;3.70;3.60;;;16.50;57.20;;;;;;5089753;27;43935;-77
2022/12/14 02:06:08;;;;;;;3.40;3.30;;;16.50;57.20;;;;;;5070888;27;45954;-73
2022/12/14 02:08:36;;;;;;;3.33;3.23;;;16.50;57.40;;;;;;5087940;27;43545;-77
2022/12/14 02:11:04;;;;;;;3.10;3.00;;;16.50;57.30;;;;;;5088996;27;44450;-77
2022/12/14 02:13:37;;;;;;;3.77;3.67;;;16.50;57.30;;;;;;5087273;27;43483;-76
2022/12/14 02:16:05;;;;;;;3.40;3.30;;;16.50;57.30;;;;;;5084561;27;45916;-76
2022/12/14 02:18:34;;;;;;;3.50;3.40;;;16.50;57.30;;;;;;5086218;27;43500;-73
2022/12/14 02:21:21;;;;;;;3.30;3.20;;;16.50;57.20;;;;;;5084586;27;43937;-77
2022/12/14 02:24:18;;;;;;;3.40;3.30;;;16.50;57.20;;;;;;5088863;27;43576;-77
2022/12/14 02:27:02;;;;;;;3.47;3.37;;;16.40;57.50;;;;;;5077871;27;44459;-75
2022/12/14 02:29:51;;;;;;;3.47;3.37;;;16.50;57.50;;;;;;5090323;27;44125;-75
2022/12/14 02:32:33;;;;;;;3.57;3.47;;;16.60;57.20;;;;;;5091770;27;43918;-77
2022/12/14 02:35:03;;;;;;;3.60;3.50;;;16.60;56.90;;;;;;5069393;27;43579;-75
2022/12/14 02:37:35;;;;;;;3.50;3.40;;;16.60;56.80;;;;;;5092163;27;43611;-74
2022/12/14 02:40:12;;;;;;;3.40;3.30;;;16.60;56.90;;;;;;5090164;27;43499;-75
2022/12/14 02:42:41;;;;;;;3.37;3.27;;;16.60;57.20;;;;;;5091464;27;44121;-76
2022/12/14 02:45:12;;;;;;;3.60;3.50;;;16.60;57.00;;;;;;5096150;27;43499;-75
2022/12/14 02:47:41;;;;;;;3.50;3.40;;;16.60;57.60;;;;;;5070782;28;45807;-77
2022/12/14 02:50:10;;;;;;;3.40;3.30;;;16.50;56.90;;;;;;5087054;27;43406;-77
2022/12/14 02:52:40;;;;;;;3.10;3.00;;;16.50;57.00;;;;;;5091428;27;43595;-75
2022/12/14 02:55:11;;;;;;;3.30;3.20;;;16.50;57.00;;;;;;5093705;27;43405;-76
2022/12/14 02:57:43;;;;;;;3.30;3.20;;;16.50;57.10;;;;;;5071363;27;45669;-77
2022/12/14 03:00:13;;;;;;;3.20;3.10;;;16.50;57.20;;;;;;5071486;27;44662;-77
2022/12/14 03:02:42;;;;;;;3.47;3.37;;;16.50;57.20;;;;;;5086187;27;43868;-76
2022/12/14 03:05:10;;;;;;;3.40;3.30;;;16.50;57.10;;;;;;5070506;27;43480;-76
2022/12/14 03:07:42;;;;;;;3.30;3.20;;;16.50;57.20;;;;;;5091452;27;43924;-77
2022/12/14 03:10:19;;;;;;;3.03;2.93;;;16.50;57.20;;;;;;5088432;27;43863;-76
2022/12/14 03:12:50;;;;;;;3.60;3.50;;;16.50;57.20;;;;;;5090944;27;44515;-76
2022/12/14 03:15:19;;;;;;;3.20;3.10;;;16.40;57.20;;;;;;5074028;27;44013;-77
2022/12/14 03:17:47;;;;;;;3.27;3.17;;;16.50;57.20;;;;;;5088847;27;43857;-74
2022/12/14 03:20:18;;;;;;;3.30;3.20;;;16.50;57.20;;;;;;5090715;27;43439;-77
2022/12/14 03:22:47;;;;;;;3.20;3.10;;;16.50;57.20;;;;;;5091521;27;43508;-75
2022/12/14 03:25:17;;;;;;;3.10;3.00;;;16.50;57.20;;;;;;5074669;27;43527;-75
2022/12/14 03:27:46;;;;;;;3.03;2.93;;;16.50;57.20;;;;;;5091265;27;43597;-75
2022/12/14 03:30:15;;;;;;;3.10;3.00;;;16.40;57.10;;;;;;5089757;27;43608;-76
2022/12/14 03:33:07;;;;;;;3.27;3.17;;;16.40;57.40;;;;;;5087626;27;43487;-77
2022/12/14 03:35:38;;;;;;;3.73;3.20;;;16.50;57.40;;;;;;5091154;27;43509;-75
2022/12/14 03:38:09;;;;;;;3.60;3.50;;;16.60;57.10;;;;;;5074162;28;45709;-78
2022/12/14 03:40:39;;;;;;;3.20;3.10;;;16.60;56.90;;;;;;5090980;27;43580;-75
2022/12/14 03:43:10;;;;;;;3.10;3.00;;;16.60;56.80;;;;;;5090213;27;44904;-78
2022/12/14 03:45:43;;;;;;;3.30;3.20;;;16.60;56.80;;;;;;5072166;27;43699;-75
2022/12/14 03:48:15;;;;;;;3.30;3.20;;;16.60;57.00;;;;;;5089999;27;43624;-77
2022/12/14 03:50:44;;;;;;;2.73;2.63;;;16.50;56.90;;;;;;5069076;28;44027;-77
2022/12/14 03:53:13;;;;;;;2.93;2.90;;;16.50;56.90;;;;;;5092699;27;43475;-75
2022/12/14 03:55:43;;;;;;;3.30;3.20;;;16.50;56.90;;;;;;5091712;27;44061;-77
2022/12/14 03:58:31;;;;;;;3.07;2.97;;;16.50;56.90;;;;;;5092537;27;43942;-75
2022/12/14 04:01:02;;;;;;;3.20;3.10;;;16.50;56.90;;;;;;5091108;27;43510;-76
2022/12/14 04:03:39;;;;;;;3.30;3.20;;;16.50;57.00;;;;;;5083039;27;43887;-77
2022/12/14 04:06:08;;;;;;;3.20;3.10;;;16.50;57.20;;;;;;5073469;27;43575;-74
2022/12/14 04:08:40;;;;;;;3.20;3.10;;;16.50;57.30;;;;;;5091531;27;44028;-76
2022/12/14 04:19:31;;;;;;;3.27;3.17;;;16.50;56.80;;;;;;5091874;27;43884;-77
2022/12/14 04:22:01;;;;;;;3.07;2.97;;;16.50;57.00;;;;;;5086040;27;43809;-77
2022/12/14 04:27:18;;;;;;;2.90;2.90;;;16.50;57.00;;;;;;5091400;27;44136;-76
2022/12/14 04:29:55;;;;;;;3.40;3.30;;;16.40;56.90;;;;;;5088505;27;43628;-75
2022/12/14 04:32:25;;;;;;;3.17;3.07;;;16.40;57.00;;;;;;5088442;27;43947;-76
2022/12/14 04:34:57;;;;;;;3.33;3.23;;;16.40;57.10;;;;;;5092433;27;43575;-76
2022/12/14 04:37:26;;;;;;;3.07;2.97;;;16.40;57.10;;;;;;5088931;27;43588;-77
2022/12/14 04:39:55;;;;;;;3.17;3.07;;;16.40;57.20;;;;;;5088634;27;43619;-76
2022/12/14 04:42:26;;;;;;;3.20;3.10;;;16.40;57.20;;;;;;5089361;27;43732;-76
2022/12/14 04:44:55;;;;;;;3.23;3.13;;;16.40;57.10;;;;;;5089656;27;43470;-78
2022/12/14 04:47:24;;;;;;;2.97;2.87;;;16.40;57.10;;;;;;5066871;27;43615;-77
2022/12/14 04:49:53;;;;;;;2.90;2.80;;;16.40;57.10;;;;;;5088055;27;44051;-77
2022/12/14 04:52:25;;;;;;;2.70;2.70;;;16.40;57.10;;;;;;5086820;27;43908;-74
2022/12/14 04:54:55;;;;;;;3.30;3.20;;;16.40;57.20;;;;;;5071056;27;45283;-76
2022/12/14 04:57:25;;;;;;;2.93;2.93;;;16.40;57.40;;;;;;5088687;27;43494;-77
2022/12/14 04:59:53;;;;;;;3.33;3.23;;;16.50;57.30;;;;;;5088924;27;43853;-77
2022/12/14 05:02:25;;;;;;;2.77;2.77;;;16.50;56.90;;;;;;5090550;27;44257;-75
2022/12/14 05:04:57;;;;;;;2.77;2.77;;;16.60;56.80;;;;;;5088220;27;43951;-77
2022/12/14 05:07:33;;;;;;;2.90;2.80;;;16.60;56.80;;;;;;5090238;27;43479;-77
2022/12/14 05:10:03;;;;;;;3.13;3.03;;;16.60;56.70;;;;;;5088399;27;43855;-76
2022/12/14 05:12:36;;;;;;;2.80;2.80;;;16.50;56.90;;;;;;5090161;27;43544;-77
2022/12/14 05:15:06;;;;;;;2.80;2.80;;;16.50;56.80;;;;;;5087091;27;43481;-76
2022/12/14 05:17:35;;;;;;;3.10;3.00;;;16.50;56.70;;;;;;5090853;27;43488;-77
2022/12/14 05:20:03;;;;;;;2.60;2.57;;;16.50;56.80;;;;;;5068138;27;45887;-75
2022/12/14 05:22:33;;;;;;;3.13;3.03;;;16.50;56.70;;;;;;5089533;27;43398;-76
2022/12/14 05:25:00;;;;;;;2.93;2.83;;;16.50;56.80;;;;;;5089816;27;44176;-78
2022/12/14 05:27:28;;;;;;;3.07;2.97;;;16.50;56.80;;;;;;5089228;27;43736;-75
2022/12/14 05:29:57;;;;;;;3.37;3.27;;;16.50;56.80;;;;;;5088492;27;43810;-75
2022/12/14 05:32:24;;;;;;;3.00;2.90;;;16.50;56.80;;;;;;5070899;28;44407;-77
2022/12/14 05:34:52;;;;;;;2.83;2.73;;;16.50;56.80;;;;;;5070838;27;43832;-77
2022/12/14 05:37:20;;;;;;;3.17;3.07;;;16.50;56.80;;;;;;5087750;27;43926;-75
2022/12/14 05:39:50;;;;;;;3.30;3.20;;;16.50;56.80;;;;;;5089920;27;43869;-76
2022/12/14 05:42:18;;;;;;;3.20;3.10;;;16.50;56.80;;;;;;5090129;27;43530;-74
2022/12/14 05:44:45;;;;;;;3.13;3.07;;;16.50;56.90;;;;;;5072805;27;43482;-76
2022/12/14 05:47:13;;;;;;;3.10;3.00;;;16.50;57.10;;;;;;5088364;27;43422;-77
2022/12/14 05:49:41;;;;;;;3.00;2.90;;;16.50;57.00;;;;;;5087654;27;44093;-77
2022/12/14 05:52:09;;;;;;;3.10;3.00;;;16.60;56.70;;;;;;5070207;27;45015;-76
2022/12/14 05:54:37;;;;;;;3.17;3.07;;;16.60;56.50;;;;;;5089219;27;43461;-76
2022/12/14 05:57:06;;;;;;;2.67;2.67;;;16.60;56.40;;;;;;5090921;27;43535;-76
2022/12/14 05:59:34;;;;;;;2.80;2.80;;;16.60;56.50;;;;;;5088233;27;43606;-75
2022/12/14 06:02:02;;;;;;;3.00;2.90;;;16.60;56.60;;;;;;5089533;27;43568;-76
2022/12/14 06:04:33;;;;;;;2.77;2.70;;;16.60;56.60;;;;;;5087078;27;44058;-77
2022/12/14 06:07:01;;;;;;;2.90;2.90;;;16.60;56.70;;;;;;5071044;27;44657;-76
2022/12/14 06:09:29;;;;;;;2.93;2.80;;;16.50;56.60;;;;;;5087126;27;43841;-78
2022/12/14 06:11:57;;;;;;;2.97;2.97;;;16.50;56.70;;;;;;5088585;27;44163;-76
2022/12/14 06:14:26;;;;;;;3.10;3.00;;;16.50;56.80;;;;;;5087580;27;43504;-76
2022/12/14 06:16:54;;;;;;;2.80;2.70;;;16.50;56.80;;;;;;5085927;27;43588;-77
2022/12/14 06:19:22;;;;;;;2.60;2.60;;;16.40;56.80;;;;;;5068778;28;45881;-76
2022/12/14 06:21:50;;;;;;;2.80;2.80;;;16.40;56.80;;;;;;5085936;27;43544;-76
2022/12/14 06:24:18;;;;;;;2.60;2.60;;;16.40;56.70;;;;;;5073995;28;44047;-77
2022/12/14 06:26:46;;;;;;;2.93;2.87;;;16.40;56.80;;;;;;5087312;27;43518;-76
2022/12/14 06:29:16;;;;;;;2.63;2.63;;;16.40;56.70;;;;;;5088717;27;43803;-75
2022/12/14 06:31:46;;;;;;;2.83;2.83;;;16.40;56.70;;;;;;5086844;27;43509;-77
2022/12/14 06:34:16;;;;;;;2.67;2.60;;;16.40;56.80;;;;;;5085852;27;43496;-74
2022/12/14 06:36:45;;;;;;;2.70;2.70;;;16.40;57.00;;;;;;5072583;27;43618;-77
2022/12/14 06:39:14;;;;;;;2.90;2.80;;;16.40;57.00;;;;;;5084858;27;43852;-74
2022/12/14 06:41:42;;;;;;;3.90;3.00;;;16.50;56.90;;;;;;5087516;27;43470;-77
2022/12/14 06:44:11;;;;;;;3.27;2.97;;;16.60;56.70;;;;;;5070089;27;44199;-74
2022/12/14 06:46:39;;;;;;;4.50;3.00;;;16.50;56.50;;;;;;5086495;27;43387;-76
2022/12/14 06:49:12;;;;;;;3.60;3.30;;;16.60;56.60;;;;;;5073613;27;45288;-75
2022/12/14 06:51:40;;;;;;;3.17;2.97;;;16.50;56.50;;;;;;5070441;27;44805;-76
2022/12/14 06:54:09;;;;;;;3.17;2.93;;;16.50;56.60;;;;;;5086904;27;44197;-73
2022/12/14 06:56:38;;;;;;;3.80;3.20;;;16.50;56.60;;;;;;5088145;27;43605;-75
2022/12/14 06:59:07;;;;;;;3.97;3.10;;;16.50;56.50;;;;;;5088562;27;43610;-76
2022/12/14 07:01:36;;;;;;;7.13;2.97;;;16.50;56.50;;;;;;5071196;27;44557;-76
2022/12/14 07:04:04;;;;;;;4.50;3.40;;;16.50;56.60;;;;;;5068644;27;44141;-77
2022/12/14 07:06:35;;;;;;;6.30;3.27;;;16.50;56.60;;;;;;5083581;27;43578;-77
2022/12/14 07:09:03;;;;;;;3.63;2.80;;;16.50;56.60;;;;;;5085234;27;43932;-76
2022/12/14 07:11:32;;;;;;;5.17;3.27;;;16.50;56.80;;;;;;5068681;27;44231;-75
2022/12/14 07:14:02;;;;;;;2.87;2.67;;;16.50;56.80;;;;;;5086621;27;43493;-77
2022/12/14 07:16:30;;;;;;;3.30;3.00;;;16.40;56.70;;;;;;5068483;27;43444;-77
2022/12/14 07:18:58;;;;;;;2.90;2.70;;;16.40;56.60;;;;;;5088346;27;43604;-71
2022/12/14 07:21:26;;;;;;;4.17;2.90;;;16.40;56.70;;;;;;5091052;27;43486;-77
2022/12/14 07:23:55;;;;;;;3.07;2.80;;;16.40;56.70;;;;;;5089622;27;43450;-77
2022/12/14 07:26:24;;;;;;;3.27;3.00;;;16.40;56.90;;;;;;5072472;27;44188;-74
2022/12/14 07:28:52;;;;;;;3.20;3.10;;;16.40;57.10;;;;;;5090578;27;43904;-77
2022/12/14 07:31:21;;;;;;;3.20;2.73;;;16.50;57.10;;;;;;5088954;27;43477;-74
2022/12/14 07:33:49;;;;;;;3.33;3.03;;;16.50;56.80;;;;;;5089748;27;44149;-75
2022/12/14 07:36:18;;;;;;;3.03;2.83;;;16.60;56.60;;;;;;5089251;27;45240;-75
2022/12/14 07:38:47;;;;;;;2.40;2.40;;;16.60;56.50;;;;;;5087511;27;43627;-76
2022/12/14 07:41:17;;;;;;;3.27;3.10;;;16.60;56.50;;;;;;5089360;27;43525;-75
2022/12/14 07:43:49;;;;;;;2.67;2.67;;;16.50;56.60;;;;;;5091455;27;43524;-77
2022/12/14 07:46:18;;;;;;;3.57;2.87;;;16.50;56.60;;;;;;5077125;28;43583;-76
2022/12/14 07:48:47;;;;;;;3.00;2.80;;;16.50;56.60;;;;;;5074806;28;45665;-76
2022/12/14 07:51:16;;;;;;;3.03;2.83;;;16.50;56.60;;;;;;5088847;27;44152;-75
2022/12/14 07:53:44;;;;;;;3.10;2.93;;;16.50;56.60;;;;;;5091751;27;43512;-75
2022/12/14 07:56:13;;;;;;;2.80;2.70;;;16.50;56.60;;;;;;5089869;27;43500;-76
2022/12/14 07:58:42;;;;;;;2.70;2.60;;;16.50;56.70;;;;;;5090220;27;43948;-77
2022/12/14 08:01:11;;;;;;;2.83;2.73;;;16.40;56.80;;;;;;5089866;27;43819;-75
2022/12/14 08:03:40;;;;;;;2.70;2.70;;;16.40;56.70;;;;;;5089967;27;43471;-75
2022/12/14 08:06:08;;;;;;;2.70;2.60;;;16.40;56.70;;;;;;5090688;27;43534;-76
2022/12/14 08:08:36;;;;;;;3.00;2.90;;;16.40;56.80;;;;;;5091138;27;43903;-74
2022/12/14 08:11:04;;;;;;;2.77;2.70;;;16.40;56.70;;;;;;5075169;28;43907;-75
2022/12/14 08:13:33;;;;;;;3.10;3.00;;;16.40;56.80;;;;;;5086919;27;43510;-75
2022/12/14 08:16:05;;;;;;;3.50;3.30;;;16.40;56.80;;;;;;5090324;27;43983;-77
2022/12/14 08:18:33;;;;;;;3.07;2.97;;;16.40;57.10;;;;;;5089384;27;43698;-77
2022/12/14 08:21:01;;;;;;;3.17;3.07;;;16.40;57.00;;;;;;5092123;27;43562;-76
2022/12/14 08:23:29;;;;;;;2.97;2.87;;;16.50;56.70;;;;;;5091156;27;45047;-78
2022/12/14 08:25:59;;;;;;;3.13;3.03;;;16.50;56.50;;;;;;5089018;27;43854;-76
2022/12/14 08:28:28;;;;;;;2.90;2.90;;;16.50;56.50;;;;;;5089842;27;43608;-75
2022/12/14 08:30:56;;;;;;;2.80;2.80;;;16.50;56.50;;;;;;5090684;27;43536;-76
2022/12/14 08:33:26;;;;;;;2.90;2.80;;;16.50;56.60;;;;;;5074238;27;43543;-76
2022/12/14 08:35:54;;;;;;;3.03;2.93;;;16.50;56.80;;;;;;5091069;27;44066;-75
2022/12/14 08:38:22;;;;;;;3.57;3.47;;;16.50;56.70;;;;;;5084111;27;45212;-74
2022/12/14 08:40:50;;;;;;;3.20;3.10;;;16.50;56.60;;;;;;5074660;28;44676;-74
2022/12/14 08:43:18;;;;;;;3.60;3.30;;;16.50;56.70;;;;;;5088847;27;43435;-76
2022/12/14 08:45:54;;;;;;;3.70;3.50;;;16.50;56.70;;;;;;5092281;27;43435;-76
2022/12/14 08:48:22;;;;;;;3.70;3.50;;;16.40;56.70;;;;;;5086940;27;44664;-76
2022/12/14 08:50:51;;;;;;;3.60;3.50;;;16.40;56.80;;;;;;5070283;27;43540;-75
2022/12/14 08:53:20;;;;;;;3.17;3.07;;;16.40;56.70;;;;;;5073217;27;44018;-75
2022/12/14 08:55:47;;;;;;;3.57;3.40;;;16.40;56.70;;;;;;5069513;28;43503;-76
2022/12/14 08:58:15;;;;;;;4.30;4.00;;;16.40;56.70;;;;;;5092827;27;43871;-76
2022/12/14 09:00:43;;;;;;;3.77;3.60;;;16.40;56.70;;;;;;5064249;27;44497;-77
2022/12/14 09:03:11;;;;;;;3.87;3.67;;;16.40;56.70;;;;;;5090196;27;43465;-76
2022/12/14 09:05:39;;;;;;;3.90;3.60;;;16.40;56.70;;;;;;5089700;27;43558;-77
2022/12/14 09:08:09;;;;;;;3.90;3.77;;;16.40;57.00;;;;;;5088225;28;43934;-75
2022/12/14 09:10:37;;;;;;;3.80;3.60;;;16.40;57.00;;;;;;5084688;28;43461;-76
2022/12/14 09:13:05;;;;;;;3.80;3.60;;;16.50;56.90;;;;;;5071183;28;43425;-75
2022/12/14 09:15:33;;;;;;;3.20;3.10;;;16.50;56.60;;;;;;5087394;27;43429;-77
2022/12/14 09:18:00;;;;;;;3.83;3.63;;;16.60;56.50;;;;;;5071691;28;45728;-75
2022/12/14 09:20:28;;;;;;;3.90;3.70;;;16.50;56.50;;;;;;5087747;27;43628;-74
2022/12/14 09:22:56;;;;;;;4.00;3.80;;;16.50;56.60;;;;;;5090067;27;43418;-77
2022/12/14 09:25:26;;;;;;;4.67;4.40;;;16.50;56.80;;;;;;5077082;27;43659;-76
2022/12/14 09:27:53;;;;;;;3.80;3.60;;;16.50;56.80;;;;;;5087614;27;43597;-75
2022/12/14 09:30:22;;;;;;;3.90;3.70;;;16.50;56.80;;;;;;5084425;27;44176;-76
2022/12/14 09:32:54;;;;;;;3.80;3.60;;;16.40;56.70;;;;;;5090888;27;43546;-74
2022/12/14 09:35:22;;;;;;;3.87;3.77;;;16.40;56.80;;;;;;5088054;27;43494;-76
2022/12/14 09:37:50;;;;;;;3.97;3.77;;;16.40;56.90;;;;;;5088390;28;43917;-76
2022/12/14 09:40:18;;;;;;;4.23;3.93;;;16.40;57.50;;;;;;5090770;27;43576;-77
2022/12/14 09:42:53;;;;;;;3.97;3.77;;;16.40;57.10;;;;;;5075190;28;43442;-76
2022/12/14 09:45:23;;;;;;;4.10;3.90;;;16.40;57.00;;;;;;5088519;28;43546;-76
2022/12/14 09:47:55;;;;;;;4.10;3.90;;;16.40;57.00;;;;;;5089269;28;43574;-76
2022/12/14 09:50:24;;;;;;;4.10;3.90;;;16.40;57.00;;;;;;5089655;28;43410;-76
2022/12/14 09:52:53;;;;;;;4.03;3.83;;;16.40;57.00;;;;;;5086565;27;43382;-76
2022/12/14 09:55:23;;;;;;;3.80;3.57;;;16.40;57.10;;;;;;5090414;28;43857;-77
2022/12/14 09:57:55;;;;;;;4.17;4.00;;;16.40;57.20;;;;;;5071469;28;45434;-74
2022/12/14 10:00:23;;;;;;;4.17;3.97;;;16.40;57.40;;;;;;5065555;28;44910;-77
2022/12/14 10:02:58;;;;;;;4.77;4.40;;;16.40;57.20;;;;;;5088702;28;43575;-76
2022/12/14 10:05:44;;;;;;;4.47;4.07;;;16.50;57.00;;;;;;5088317;28;43481;-76
2022/12/14 10:08:15;;;;;;;4.27;4.03;;;16.50;56.90;;;;;;5083952;28;43899;-75
2022/12/14 10:10:47;;;;;;;4.13;3.83;;;16.50;56.80;;;;;;5089002;28;43457;-75
2022/12/14 10:13:20;;;;;;;4.67;4.33;;;16.50;56.90;;;;;;5088133;28;43525;-77
2022/12/14 10:15:54;;;;;;;4.10;3.90;;;16.50;57.10;;;;;;5070839;28;43490;-76
2022/12/14 10:18:34;;;;;;;4.10;3.80;;;16.40;57.00;;;;;;5084220;28;43895;-75
2022/12/14 10:21:23;;;;;;;4.83;4.43;;;16.40;57.00;;;;;;5083409;28;43496;-76
2022/12/14 10:23:53;;;;;;;4.60;4.40;;;16.40;57.10;;;;;;5070203;28;44075;-75
2022/12/14 10:26:23;;;;;;;4.37;4.17;;;16.40;57.80;;;;;;5089199;28;43469;-75
2022/12/14 10:28:53;;;;;;;4.60;4.30;;;16.40;57.20;;;;;;5070470;28;43890;-75
2022/12/14 10:31:31;;;;;;;4.13;3.93;;;16.40;57.30;;;;;;5087913;28;43348;-77
2022/12/14 10:34:01;;;;;;;4.17;3.97;;;16.40;57.20;;;;;;5086140;28;43351;-74
2022/12/14 10:36:35;;;;;;;4.27;3.97;;;16.40;57.20;;;;;;5085369;27;43592;-77
2022/12/14 10:39:07;;;;;;;4.40;4.10;;;16.40;57.20;;;;;;5064377;27;45590;-75
2022/12/14 10:41:39;;;;;;;5.33;4.40;;;16.40;57.20;;;;;;5085470;27;44477;-77
2022/12/14 10:44:13;;;;;;;4.00;3.80;;;16.40;57.40;;;;;;5085390;27;43632;-75
2022/12/14 10:46:44;;;;;;;4.63;4.40;;;16.40;58.00;;;;;;5072126;27;43497;-75
2022/12/14 10:49:15;;;;;;;4.70;4.40;;;16.40;57.60;;;;;;5087767;28;43848;-77
2022/12/14 10:51:45;;;;;;;4.40;4.17;;;16.40;57.70;;;;;;5088593;27;43496;-76
2022/12/14 10:54:21;;;;;;;4.67;4.27;;;16.50;57.40;;;;;;5070326;28;43520;-76
2022/12/14 10:56:49;;;;;;;3.77;3.63;;;16.50;57.20;;;;;;5082983;27;44045;-76
2022/12/14 10:59:27;;;;;;;4.07;3.93;;;16.50;57.00;;;;;;5087205;27;43857;-75
2022/12/14 11:02:05;;;;;;;4.40;4.10;;;16.50;57.10;;;;;;5073529;27;44420;-76
2022/12/14 11:04:36;;;;;;;4.70;4.40;;;16.50;57.10;;;;;;5083148;27;43518;-77
2022/12/14 11:07:05;;;;;;;4.33;4.13;;;16.50;57.40;;;;;;5091792;27;43588;-75
2022/12/14 11:09:33;;;;;;;4.10;3.90;;;16.50;57.30;;;;;;5085988;28;43666;-77
2022/12/14 11:12:03;;;;;;;3.73;3.63;;;16.50;57.30;;;;;;5087418;28;44114;-75
2022/12/14 11:14:33;;;;;;;4.20;4.00;;;16.50;57.30;;;;;;5078063;28;43396;-75
2022/12/14 11:17:01;;;;;;;3.80;3.63;;;16.50;57.40;;;;;;5075604;28;43583;-76
2022/12/14 11:19:29;;;;;;;4.43;4.13;;;16.50;57.40;;;;;;5073025;28;45709;-77
2022/12/14 11:22:11;;;;;;;4.03;3.83;;;16.50;57.50;;;;;;5091637;27;43992;-77
2022/12/14 11:24:47;;;;;;;4.20;3.90;;;16.40;57.60;;;;;;5091559;28;43442;-76
2022/12/14 11:27:18;;;;;;;4.73;4.50;;;16.40;57.50;;;;;;5076385;28;43582;-78
2022/12/14 11:29:48;;;;;;;4.33;4.17;;;16.40;57.50;;;;;;5089361;28;43578;-76
2022/12/14 11:32:20;;;;;;;4.13;3.90;;;16.40;57.50;;;;;;5092257;28;43462;-76
2022/12/14 11:34:57;;;;;;;4.73;4.20;;;16.40;57.60;;;;;;5090471;28;43453;-74
2022/12/14 11:37:26;;;;;;;4.03;3.83;;;16.40;57.60;;;;;;5073269;28;43513;-76
2022/12/14 11:39:55;;;;;;;4.20;4.00;;;16.40;57.80;;;;;;5072120;27;45904;-78
2022/12/14 11:42:23;;;;;;;4.20;3.93;;;16.40;57.90;;;;;;5090292;27;44139;-74
2022/12/14 11:44:52;;;;;;;4.00;3.80;;;16.50;58.00;;;;;;5085380;27;43455;-77
2022/12/14 11:47:20;;;;;;;4.13;3.83;;;16.60;57.80;;;;;;5091478;28;43531;-74
2022/12/14 11:49:49;;;;;;;4.03;3.93;;;16.60;57.50;;;;;;5091500;28;43888;-77
2022/12/14 11:52:19;;;;;;;4.00;3.90;;;16.60;57.50;;;;;;5091063;28;43394;-77
2022/12/14 11:54:48;;;;;;;4.00;3.90;;;16.60;57.50;;;;;;5090336;28;43451;-75
2022/12/14 11:57:22;;;;;;;3.90;3.80;;;16.60;57.50;;;;;;5088771;27;43969;-77
2022/12/14 11:59:53;;;;;;;3.97;3.77;;;16.60;57.60;;;;;;5078950;27;43911;-77
2022/12/14 12:02:25;;;;;;;4.17;3.87;;;16.60;57.60;;;;;;5082479;27;43525;-77
2022/12/14 12:04:56;;;;;;;4.73;4.53;;;16.60;57.60;;;;;;5074436;27;43438;-75
2022/12/14 12:07:29;;;;;;;4.40;4.13;;;16.60;57.60;;;;;;5073296;28;43504;-77
2022/12/14 12:10:01;;;;;;;4.10;3.90;;;16.50;57.60;;;;;;5091342;28;43931;-75
2022/12/14 12:12:29;;;;;;;4.00;3.80;;;16.50;57.60;;;;;;5085366;27;43498;-78
2022/12/14 12:14:59;;;;;;;3.40;3.30;;;16.50;57.80;;;;;;5084901;27;43486;-75
2022/12/14 12:17:41;;;;;;;3.93;3.67;;;16.50;57.80;;;;;;5082959;27;43457;-76
2022/12/14 12:20:20;;;;;;;4.00;3.90;;;16.50;57.80;;;;;;5061711;28;45771;-76
2022/12/14 12:22:49;;;;;;;4.10;4.00;;;16.50;57.80;;;;;;5077272;28;43582;-76
2022/12/14 12:25:17;;;;;;;4.23;3.80;;;16.50;57.80;;;;;;5081899;28;44047;-76
2022/12/14 12:28:03;;;;;;;4.50;4.30;;;16.50;57.90;;;;;;5085042;27;44103;-75
2022/12/14 12:30:34;;;;;;;4.03;3.93;;;16.50;57.90;;;;;;5064764;28;45379;-75
2022/12/14 12:33:06;;;;;;;4.53;4.33;;;16.50;58.00;;;;;;5082169;28;43504;-74
2022/12/14 12:35:36;;;;;;;4.43;4.23;;;16.50;57.90;;;;;;5083005;27;44087;-76
2022/12/14 12:38:08;;;;;;;3.97;3.87;;;16.60;57.80;;;;;;5084210;28;43552;-74
2022/12/14 12:40:38;;;;;;;4.13;3.83;;;16.60;57.70;;;;;;5083112;28;43856;-75
2022/12/14 12:43:10;;;;;;;4.00;3.80;;;16.60;57.70;;;;;;5083708;28;43580;-74
2022/12/14 12:45:40;;;;;;;3.80;3.70;;;16.60;57.70;;;;;;5081219;28;43478;-73
2022/12/14 12:48:12;;;;;;;3.80;3.70;;;16.60;57.80;;;;;;5080265;28;43601;-75
2022/12/14 12:50:42;;;;;;;3.90;3.80;;;16.60;57.90;;;;;;5083041;28;44818;-75
2022/12/14 12:53:18;;;;;;;4.27;4.07;;;16.50;57.80;;;;;;5084249;28;43509;-75
2022/12/14 12:55:48;;;;;;;4.10;3.90;;;16.60;58.00;;;;;;5064955;28;43566;-74
2022/12/14 12:58:19;;;;;;;4.30;4.10;;;16.60;58.00;;;;;;5082327;28;43573;-75
2022/12/14 13:00:50;;;;;;;4.27;4.07;;;16.50;58.00;;;;;;5082122;28;44394;-77
2022/12/14 13:03:20;;;;;;;4.53;4.33;;;16.50;58.00;;;;;;5083628;27;43465;-77
2022/12/14 13:05:48;;;;;;;4.00;3.80;;;16.50;58.10;;;;;;5084579;28;43581;-76
2022/12/14 13:08:22;;;;;;;4.10;4.00;;;16.50;58.10;;;;;;5081816;28;43489;-77
2022/12/14 13:10:50;;;;;;;4.30;4.10;;;16.50;58.20;;;;;;5081234;28;43846;-74
2022/12/14 13:13:38;;;;;;;4.07;3.87;;;16.50;58.20;;;;;;5083260;28;44038;-75
2022/12/14 13:16:11;;;;;;;4.13;3.83;;;16.50;58.20;;;;;;5064297;28;43514;-76